• Join FlightAware (Why Join?)
  • Login
  • US Flag 
Rudolph Flight #1: Scheduled 
07:31PM EST


 

Airport Tracker/Info


-or-


 

Live Flight TrackerFlight Track Log ✈ AAY956 ✈ 10-Mar-2014 ✈ KPGD - KIAG

Flight Track Log - Related Links

Times and Time Zones

All times are in EDT time to prevent confusion due to time zone crossing. See the AAY956 flight status page for this flight to view local times or setup timezone preferences in your user account.

Time Position Orientation Groundspeed Altitude Reporting Facility
EDT Latitude Longitude Course Direction KTS MPH feet Rate Location/Type
02:37PM 26.9264 -81.9094 24° Northeast 279 321 4,300  Level Miami Center
02:38PM 27.0017 -81.9011 North 263 303 7,000 2,340 Climbing Miami Center
02:39PM 27.0689 -81.8878 10° North 263 303 9,000 1,860 Climbing Miami Center
02:40PM 27.1528 -81.8797 North 280 322 10,800 1,500 Climbing Miami Center
02:41PM 26.9927 -81.9620 24° Northeast  Level FlightAware Approximate
02:41PM 27.2556 -81.8656 North 322 371 12,000  Level Miami Center
02:42PM 27.3611 -81.8281 18° North 366 421 13,900 2,520 Climbing Miami Center
02:43PM 27.4692 -81.7811 21° North 394 453 17,100 2,340 Climbing Miami Center
02:44PM 27.5917 -81.7397 17° North 410 472 18,600 1,680 Climbing Miami Center
02:45PM 27.7061 -81.6858 23° Northeast 421 484 20,500 1,560 Climbing Miami Center
02:46PM 27.8119 -81.6458 18° North 437 503 21,800 1,440 Climbing Miami Center
02:47PM 27.9389 -81.5878 22° Northeast 437 503 23,400 1,260 Climbing Miami Center
02:48PM 28.0594 -81.5411 19° North 448 516 24,400 1,380 Climbing Miami Center
02:50PM 28.2775 -81.4478 21° North 460 529 27,500 1,500 Climbing Jacksonville Center
02:51PM 28.4103 -81.3892 21° North 460 529 28,700 1,080 Climbing Jacksonville Center
02:52PM 28.5350 -81.3447 17° North 460 529 29,700 1,020 Climbing Jacksonville Center
02:53PM 28.6561 -81.3500 358° North 443 510 30,800 1,200 Climbing Jacksonville Center
02:54PM 28.7753 -81.3600 356° North 437 503 32,100 900 Climbing Jacksonville Center
02:55PM 28.8900 -81.3725 355° North 426 490 32,600 360 Climbing Jacksonville Center
02:56PM 29.0092 -81.3803 357° North 426 490 32,900 120 Climbing Jacksonville Center
02:57PM 29.1283 -81.3950 354° North 426 490 32,900  Level Jacksonville Center
02:58PM 29.2475 -81.4075 355° North 426 490 32,900  Level Jacksonville Center
02:59PM 29.3686 -81.4175 356° North 426 490 32,900  Level Jacksonville Center
03:00PM 29.4836 -81.4350 352° North 421 484 32,900  Level Jacksonville Center
03:01PM 29.6047 -81.4450 356° North 426 490 32,900  Level Jacksonville Center
03:02PM 29.7219 -81.4528 357° North 426 490 32,900  Level Jacksonville Center
03:03PM 29.8408 -81.4631 356° North 426 490 32,900  Level Jacksonville Center
03:04PM 29.9558 -81.4758 355° North 421 484 32,900  Level Jacksonville Center
03:05PM 30.0772 -81.4836 357° North 426 490 32,900  Level Jacksonville Center
03:06PM 30.1836 -81.4964 354° North 426 490 32,900  Level Jacksonville Center
03:07PM 30.3050 -81.5044 357° North 426 490 32,900  Level Jacksonville Center
03:08PM 30.4158 -81.5364 346° North 420 483 32,900  Level Jacksonville Center
03:09PM 30.5311 -81.5636 349° North 414 476 32,900  Level Jacksonville Center
03:10PM 30.6442 -81.5936 347° North 414 476 32,900  Level Jacksonville Center
03:11PM 30.7572 -81.6283 345° North 414 476 32,900  Level Jacksonville Center
03:12PM 30.8722 -81.6558 348° North 414 476 32,900  Level Jacksonville Center
03:13PM 30.9811 -81.6931 344° North 409 471 32,900  Level Jacksonville Center
03:14PM 31.0964 -81.7183 349° North 409 471 32,900  Level Jacksonville Center
03:15PM 31.2053 -81.7558 344° North 409 471 32,900 -180 Level Jacksonville Center
03:16PM 31.3181 -81.7836 348° North 409 471 32,600 -600 Descending Jacksonville Center
03:17PM 31.4458 -81.8017 353° North 416 479 31,700 -660 Descending Jacksonville Center
03:18PM 31.6433 -81.8311 353° North 412 474 31,000 -300 Descending Atlanta Center
03:19PM 31.7586 -81.8506 352° North 418 481 31,000  Level Atlanta Center
03:20PM 31.8778 -81.8672 353° North 423 487 31,000  Level Atlanta Center
03:21PM 31.9908 -81.8864 352° North 423 487 31,000  Level Atlanta Center
03:22PM 32.1058 -81.9033 353° North 423 487 31,000  Level Atlanta Center
03:23PM 32.2231 -81.9250 351° North 423 487 31,000  Level Atlanta Center
03:24PM 32.3361 -81.9394 354° North 417 480 31,000  Level Atlanta Center
03:25PM 32.4533 -81.9614 351° North 417 480 31,000  Level Atlanta Center
03:26PM 32.5725 -81.9783 353° North 417 480 31,000  Level Atlanta Center
03:27PM 32.6917 -81.9828 358° North 417 480 31,000  Level Atlanta Center
03:28PM 32.8147 -81.9850 359° North 422 486 31,000  Level Atlanta Center
03:29PM 32.9339 -81.9844 360° North 429 494 31,000  Level Atlanta Center
03:31PM 33.1758 -81.9764 North 424 488 31,000  Level Atlanta Center
03:32PM 33.2947 -81.9736 North 430 495 31,000  Level Atlanta Center
03:33PM 33.4178 -81.9706 North 430 495 31,000  Level Atlanta Center
03:34PM 33.5261 -81.9631 North 430 495 31,000  Level Atlanta Center
03:35PM 33.6472 -81.9650 359° North 430 495 31,000  Level Atlanta Center
03:36PM 33.7661 -81.9547 North 430 495 31,000  Level Atlanta Center
03:37PM 33.8872 -81.9594 358° North 430 495 31,000  Level Atlanta Center
03:38PM 34.0081 -81.9514 North 425 489 31,000  Level Atlanta Center
03:39PM 34.1272 -81.9536 359° North 425 489 31,000  Level Atlanta Center
03:40PM 34.2439 -81.9481 North 419 482 31,000  Level Atlanta Center
03:41PM 34.3628 -81.9475 360° North 419 482 31,000  Level Atlanta Center
03:42PM 34.4817 -81.9397 North 424 488 31,000  Level Atlanta Center
03:43PM 34.5981 -81.9014 15° North 419 482 31,000  Level Atlanta Center
03:44PM 34.7311 -81.8728 10° North 432 497 31,000  Level Atlanta Center
03:45PM 34.8450 -81.8319 16° North 432 497 31,000  Level Atlanta Center
03:46PM 34.9572 -81.8008 13° North 432 497 31,000  Level Atlanta Center
03:47PM 35.0775 -81.7647 14° North 426 490 31,000  Level Atlanta Center
03:48PM 35.1936 -81.7311 13° North 431 496 31,000  Level Atlanta Center
03:49PM 35.3097 -81.6922 15° North 431 496 31,000  Level Atlanta Center
03:50PM 35.4261 -81.6558 14° North 431 496 31,000  Level Atlanta Center
03:51PM 35.5400 -81.6217 14° North 431 496 31,000  Level Atlanta Center
03:52PM 35.6561 -81.5850 14° North 431 496 31,000  Level Atlanta Center
03:53PM 35.7722 -81.5483 14° North 431 496 31,000  Level Atlanta Center
03:54PM 35.8883 -81.5089 15° North 431 496 31,000  Level Atlanta Center
03:55PM 36.0064 -81.4719 14° North 431 496 31,000  Level Atlanta Center
03:56PM 36.1222 -81.4297 16° North 426 490 31,000  Level Atlanta Center
03:57PM 36.2383 -81.3950 14° North 426 490 31,000 60 Level Atlanta Center
03:58PM 36.3522 -81.3553 16° North 431 496 31,200 900 Climbing Atlanta Center
03:59PM 36.4725 -81.3203 13° North 431 496 32,800 900 Climbing Atlanta Center
04:00PM 36.5842 -81.2803 16° North 426 490 33,000 60 Climbing Atlanta Center
04:01PM 36.6939 -81.2453 14° North 414 476 33,000  Level Atlanta Center
04:04PM 36.9300 -81.1708 14° North 422 486 33,000  Level Indianapolis Center
04:05PM 37.0403 -81.1269 18° North 426 490 33,000  Level Indianapolis Center
04:06PM 37.1764 -81.0914 12° North 426 490 33,000  Level Indianapolis Center
04:07PM 37.2867 -81.0486 17° North 425 489 33,000  Level Indianapolis Center
04:08PM 37.3956 -81.0167 13° North 418 481 33,000  Level Indianapolis Center
04:09PM 37.5294 -80.9675 16° North 423 487 33,000  Level Indianapolis Center
04:10PM 37.6436 -80.9342 13° North 424 488 33,000  Level Indianapolis Center
04:11PM 37.7547 -80.8939 16° North 425 489 33,000  Level Indianapolis Center
04:12PM 37.8642 -80.8708 North 423 487 33,000  Level Indianapolis Center
04:13PM 38.0006 -80.8272 14° North 423 487 33,000  Level Indianapolis Center
04:14PM 38.1144 -80.7967 12° North 422 486 33,000  Level Indianapolis Center
04:15PM 38.2256 -80.7628 13° North 417 480 33,000  Level Indianapolis Center
04:16PM 38.3381 -80.7294 13° North 417 480 33,000  Level Indianapolis Center
04:17PM 38.4503 -80.7167 North 412 474 33,000  Level Indianapolis Center
04:18PM 38.5844 -80.6933 North 409 471 33,000  Level Indianapolis Center
04:19PM 38.6961 -80.6761 North 408 470 33,000  Level Indianapolis Center
04:20PM 38.8075 -80.6578 North 408 470 33,000  Level Indianapolis Center
04:21PM 38.9186 -80.6319 10° North 408 470 33,000  Level Indianapolis Center
04:22PM 39.0306 -80.5944 15° North 412 474 33,000  Level Indianapolis Center
04:23PM 39.1381 -80.5542 16° North 411 473 33,000  Level Indianapolis Center
04:24PM 39.2700 -80.5050 16° North 410 472 33,000 -120 Level Indianapolis Center
04:25PM 39.3797 -80.4597 18° North 413 475 32,800 -1,020 Descending Indianapolis Center
04:26PM 39.4928 -80.4225 14° North 416 479 31,000 -900 Descending Indianapolis Center
04:27PM 39.6028 -80.3714 20° North 419 482 31,000  Level Indianapolis Center
04:28PM 39.7206 -80.3344 14° North 434 499 31,000  Level Indianapolis Center
04:30PM 39.8353 -80.2836 19° North 436 502 31,000  Level Indianapolis Center
04:31PM 39.9744 -80.2378 14° North 428 493 31,000  Level Indianapolis Center
04:32PM 40.0878 -80.1844 20° North 432 497 31,000  Level Indianapolis Center
04:33PM 40.2117 -80.1442 14° North 428 493 31,000  Level Indianapolis Center
04:34PM 40.3464 -80.0872 18° North 427 491 31,000  Level Cleveland Center
04:35PM 40.4581 -80.0469 15° North 418 481 31,000  Level Cleveland Center
04:36PM 40.5831 -79.9911 19° North 430 495 31,000  Level Cleveland Center
04:37PM 40.6975 -79.9497 15° North 430 495 31,000 -360 Level Cleveland Center
04:38PM 40.8097 -79.8983 19° North 430 495 30,300 -720 Descending Cleveland Center
04:39PM 40.9236 -79.8622 13° North 421 484 29,500 -660 Descending Cleveland Center
04:40PM 41.0567 -79.7997 20° North 424 488 29,000 -300 Descending Cleveland Center
04:41PM 41.1553 -79.7683 13° North 408 470 29,000  Level Cleveland Center
04:42PM 41.2617 -79.7161 20° North 408 470 29,000  Level Cleveland Center
04:43PM 41.3883 -79.6719 15° North 396 456 29,000  Level Cleveland Center
04:44PM 41.4956 -79.6197 20° North 406 467 29,000 -60 Level Cleveland Center
04:45PM 41.6022 -79.5839 14° North 398 458 28,900 -540 Descending Cleveland Center
04:46PM 41.7044 -79.5347 20° North 393 452 28,000 -1,140 Descending Cleveland Center
04:47PM 41.8014 -79.4983 16° North 366 421 26,600 -1,440 Descending Cleveland Center
04:48PM 41.9172 -79.4464 18° North 367 422 25,100 -1,860 Descending Cleveland Center
04:49PM 42.0108 -79.4153 14° North 351 404 22,800 -2,040 Descending Cleveland Center
04:50PM 42.1022 -79.3708 20° North 351 404 21,000 -1,800 Descending Cleveland Center
04:51PM 42.1914 -79.3375 15° North 337 388 19,100 -2,100 Descending Cleveland Center
04:52PM 42.2781 -79.2983 18° North 331 381 16,800 -2,100 Descending Cleveland Center
04:54PM 42.3642 -79.2686 14° North 323 372 14,800 -2,100 Descending Cleveland Center
04:55PM 42.4636 -79.2211 19° North 322 371 12,500 -1,980 Descending Cleveland Center
04:56PM 42.5389 -79.1911 16° North 319 367 10,800 -1,560 Descending Cleveland Center
04:57PM 42.6328 -79.1536 16° North 300 345 9,300 -1,620 Descending Cleveland Center
04:58PM 42.7050 -79.1206 19° North 289 333 7,500 -1,500 Descending Cleveland Center
04:59PM 42.7842 -79.0894 16° North 288 331 6,200 -1,440 Descending Cleveland Center
05:00PM 42.8606 -79.0531 19° North 282 325 4,600 -1,740 Descending Cleveland Center
05:01PM 42.9361 -79.0103 23° Northeast 287 330 2,700 -960 Descending Cleveland Center
05:02PM 43.0008 -78.9442 37° Northeast 283 326 2,700  Level Cleveland Center
05:03PM 43.0572 -78.8892 35° Northeast 249 287 2,800  Climbing Cleveland Center
05:04PM 43.0686 -78.8083 79° East 210 242 2,800 -300 Level Cleveland Center
05:05PM 43.0942 -78.7428 62° Northeast 211 243 2,300 -360 Descending Cleveland Center
05:06PM 43.1106 -78.7800 301° West 134 154 2,100 -240 Descending Cleveland Center
05:07PM 43.1081 -78.8308 266° West 132 152 1,900 -300 Descending Cleveland Center
05:08PM 43.1081 -78.8747 270° West 119 137 1,600 -300 Descending Cleveland Center